sensor_id;sensor_type;location;lat;lon;timestamp;temperature;humidity
40932;DHT22;36257;46.052;12.540;2023-04-24T00:01:47;14.80;98.00
40932;DHT22;36257;46.052;12.540;2023-04-24T00:04:13;14.80;98.10
40932;DHT22;36257;46.052;12.540;2023-04-24T00:06:42;14.70;98.00
40932;DHT22;36257;46.052;12.540;2023-04-24T00:09:08;14.60;98.00
40932;DHT22;36257;46.052;12.540;2023-04-24T00:11:35;14.60;97.70
40932;DHT22;36257;46.052;12.540;2023-04-24T00:14:01;14.50;97.50
40932;DHT22;36257;46.052;12.540;2023-04-24T00:16:27;14.50;97.00
40932;DHT22;36257;46.052;12.540;2023-04-24T00:18:53;14.50;96.90
40932;DHT22;36257;46.052;12.540;2023-04-24T00:21:19;14.60;97.00
40932;DHT22;36257;46.052;12.540;2023-04-24T00:23:46;14.50;96.80
40932;DHT22;36257;46.052;12.540;2023-04-24T00:26:11;14.50;97.50
40932;DHT22;36257;46.052;12.540;2023-04-24T00:28:37;14.50;97.70
40932;DHT22;36257;46.052;12.540;2023-04-24T00:31:03;14.50;98.10
40932;DHT22;36257;46.052;12.540;2023-04-24T00:33:28;14.50;98.60
40932;DHT22;36257;46.052;12.540;2023-04-24T00:35:54;14.50;98.90
40932;DHT22;36257;46.052;12.540;2023-04-24T00:38:19;14.50;98.00
40932;DHT22;36257;46.052;12.540;2023-04-24T00:40:45;14.50;98.00
40932;DHT22;36257;46.052;12.540;2023-04-24T00:43:12;14.50;97.90
40932;DHT22;36257;46.052;12.540;2023-04-24T00:45:38;14.60;97.60
40932;DHT22;36257;46.052;12.540;2023-04-24T00:48:04;14.60;96.70
40932;DHT22;36257;46.052;12.540;2023-04-24T00:50:30;14.60;96.00
40932;DHT22;36257;46.052;12.540;2023-04-24T00:52:57;14.60;96.20
40932;DHT22;36257;46.052;12.540;2023-04-24T00:55:23;14.50;96.20
40932;DHT22;36257;46.052;12.540;2023-04-24T00:57:50;14.40;95.60
40932;DHT22;36257;46.052;12.540;2023-04-24T01:00:16;14.40;95.50
40932;DHT22;36257;46.052;12.540;2023-04-24T01:02:43;14.30;95.40
40932;DHT22;36257;46.052;12.540;2023-04-24T01:05:14;14.30;95.50
40932;DHT22;36257;46.052;12.540;2023-04-24T01:07:45;14.30;95.10
40932;DHT22;36257;46.052;12.540;2023-04-24T01:10:14;14.40;94.70
40932;DHT22;36257;46.052;12.540;2023-04-24T01:12:40;14.30;94.60
40932;DHT22;36257;46.052;12.540;2023-04-24T01:15:06;14.30;94.40
40932;DHT22;36257;46.052;12.540;2023-04-24T01:17:32;14.30;94.20
40932;DHT22;36257;46.052;12.540;2023-04-24T01:19:59;14.30;93.80
40932;DHT22;36257;46.052;12.540;2023-04-24T01:22:25;14.30;93.60
40932;DHT22;36257;46.052;12.540;2023-04-24T01:24:52;14.30;93.90
40932;DHT22;36257;46.052;12.540;2023-04-24T01:27:18;14.30;94.00
40932;DHT22;36257;46.052;12.540;2023-04-24T01:29:45;14.30;94.00
40932;DHT22;36257;46.052;12.540;2023-04-24T01:32:11;14.30;93.50
40932;DHT22;36257;46.052;12.540;2023-04-24T01:34:37;14.40;93.40
40932;DHT22;36257;46.052;12.540;2023-04-24T01:37:03;14.40;92.90
40932;DHT22;36257;46.052;12.540;2023-04-24T01:39:30;14.40;92.90
40932;DHT22;36257;46.052;12.540;2023-04-24T01:41:57;14.50;92.30
40932;DHT22;36257;46.052;12.540;2023-04-24T01:44:23;14.50;92.10
40932;DHT22;36257;46.052;12.540;2023-04-24T01:46:49;14.50;92.40
40932;DHT22;36257;46.052;12.540;2023-04-24T01:49:15;14.60;92.20
40932;DHT22;36257;46.052;12.540;2023-04-24T01:51:41;14.60;91.50
40932;DHT22;36257;46.052;12.540;2023-04-24T01:54:06;14.70;91.10
40932;DHT22;36257;46.052;12.540;2023-04-24T01:56:34;14.70;90.80
40932;DHT22;36257;46.052;12.540;2023-04-24T01:59:02;14.70;90.20
40932;DHT22;36257;46.052;12.540;2023-04-24T02:01:36;14.80;89.60
40932;DHT22;36257;46.052;12.540;2023-04-24T02:04:03;14.80;89.70
40932;DHT22;36257;46.052;12.540;2023-04-24T02:06:28;14.80;89.50
40932;DHT22;36257;46.052;12.540;2023-04-24T02:08:54;14.80;90.10
40932;DHT22;36257;46.052;12.540;2023-04-24T02:11:20;14.80;90.40
40932;DHT22;36257;46.052;12.540;2023-04-24T02:13:45;14.80;90.80
40932;DHT22;36257;46.052;12.540;2023-04-24T02:16:11;14.70;90.50
40932;DHT22;36257;46.052;12.540;2023-04-24T02:18:37;14.70;91.50
40932;DHT22;36257;46.052;12.540;2023-04-24T02:21:02;14.70;91.40
40932;DHT22;36257;46.052;12.540;2023-04-24T02:23:28;14.70;91.20
40932;DHT22;36257;46.052;12.540;2023-04-24T02:25:53;14.60;91.10
40932;DHT22;36257;46.052;12.540;2023-04-24T02:28:19;14.60;91.10
40932;DHT22;36257;46.052;12.540;2023-04-24T02:30:45;14.60;90.50
40932;DHT22;36257;46.052;12.540;2023-04-24T02:33:11;14.70;90.10
40932;DHT22;36257;46.052;12.540;2023-04-24T02:35:37;14.60;90.30
40932;DHT22;36257;46.052;12.540;2023-04-24T02:38:03;14.60;90.00
40932;DHT22;36257;46.052;12.540;2023-04-24T02:40:29;14.60;89.80
40932;DHT22;36257;46.052;12.540;2023-04-24T02:42:55;14.60;89.80
40932;DHT22;36257;46.052;12.540;2023-04-24T02:45:21;14.60;90.50
40932;DHT22;36257;46.052;12.540;2023-04-24T02:47:46;14.70;90.30
40932;DHT22;36257;46.052;12.540;2023-04-24T02:50:12;14.70;90.80
40932;DHT22;36257;46.052;12.540;2023-04-24T02:52:37;14.70;90.50
40932;DHT22;36257;46.052;12.540;2023-04-24T02:55:03;14.70;90.70
40932;DHT22;36257;46.052;12.540;2023-04-24T02:57:29;14.60;91.10
40932;DHT22;36257;46.052;12.540;2023-04-24T02:59:55;14.60;90.90
40932;DHT22;36257;46.052;12.540;2023-04-24T03:02:21;14.60;91.00
40932;DHT22;36257;46.052;12.540;2023-04-24T03:04:46;14.50;91.50
40932;DHT22;36257;46.052;12.540;2023-04-24T03:07:13;14.60;91.40
40932;DHT22;36257;46.052;12.540;2023-04-24T03:09:40;14.60;91.30
40932;DHT22;36257;46.052;12.540;2023-04-24T03:12:06;14.50;91.70
40932;DHT22;36257;46.052;12.540;2023-04-24T03:14:32;14.50;92.00
40932;DHT22;36257;46.052;12.540;2023-04-24T03:16:57;14.50;91.90
40932;DHT22;36257;46.052;12.540;2023-04-24T03:19:23;14.50;91.70
40932;DHT22;36257;46.052;12.540;2023-04-24T03:21:49;14.50;91.90
40932;DHT22;36257;46.052;12.540;2023-04-24T03:24:15;14.50;91.80
40932;DHT22;36257;46.052;12.540;2023-04-24T03:26:40;14.50;91.60
40932;DHT22;36257;46.052;12.540;2023-04-24T03:29:06;14.50;91.70
40932;DHT22;36257;46.052;12.540;2023-04-24T03:31:32;14.50;92.20
40932;DHT22;36257;46.052;12.540;2023-04-24T03:33:57;14.50;92.00
40932;DHT22;36257;46.052;12.540;2023-04-24T03:36:23;14.50;91.90
40932;DHT22;36257;46.052;12.540;2023-04-24T03:38:48;14.50;92.00
40932;DHT22;36257;46.052;12.540;2023-04-24T03:41:14;14.50;92.30
40932;DHT22;36257;46.052;12.540;2023-04-24T03:43:40;14.50;91.90
40932;DHT22;36257;46.052;12.540;2023-04-24T03:46:05;14.50;92.30
40932;DHT22;36257;46.052;12.540;2023-04-24T03:48:32;14.50;93.50
40932;DHT22;36257;46.052;12.540;2023-04-24T03:50:58;14.40;94.30
40932;DHT22;36257;46.052;12.540;2023-04-24T03:53:23;14.40;95.00
40932;DHT22;36257;46.052;12.540;2023-04-24T03:55:49;14.30;95.10
40932;DHT22;36257;46.052;12.540;2023-04-24T03:58:15;14.20;95.70
40932;DHT22;36257;46.052;12.540;2023-04-24T04:00:41;14.20;95.70
40932;DHT22;36257;46.052;12.540;2023-04-24T04:03:06;14.20;95.90
40932;DHT22;36257;46.052;12.540;2023-04-24T04:05:32;14.20;96.50
40932;DHT22;36257;46.052;12.540;2023-04-24T04:07:58;14.20;96.60
40932;DHT22;36257;46.052;12.540;2023-04-24T04:10:23;14.20;97.00
40932;DHT22;36257;46.052;12.540;2023-04-24T04:12:49;14.20;96.90
40932;DHT22;36257;46.052;12.540;2023-04-24T04:15:15;14.10;96.90
40932;DHT22;36257;46.052;12.540;2023-04-24T04:17:40;14.10;97.50
40932;DHT22;36257;46.052;12.540;2023-04-24T04:20:07;14.10;97.30
40932;DHT22;36257;46.052;12.540;2023-04-24T04:22:35;14.00;97.40
40932;DHT22;36257;46.052;12.540;2023-04-24T04:25:01;14.00;97.80
40932;DHT22;36257;46.052;12.540;2023-04-24T04:27:27;14.00;98.10
40932;DHT22;36257;46.052;12.540;2023-04-24T04:29:54;14.00;98.30
40932;DHT22;36257;46.052;12.540;2023-04-24T04:32:21;14.00;98.20
40932;DHT22;36257;46.052;12.540;2023-04-24T04:34:47;14.00;97.90
40932;DHT22;36257;46.052;12.540;2023-04-24T04:37:14;14.00;98.10
40932;DHT22;36257;46.052;12.540;2023-04-24T04:39:40;14.00;98.40
40932;DHT22;36257;46.052;12.540;2023-04-24T04:42:07;14.00;98.30
40932;DHT22;36257;46.052;12.540;2023-04-24T04:44:33;14.10;98.40
40932;DHT22;36257;46.052;12.540;2023-04-24T04:47:01;14.10;98.20
40932;DHT22;36257;46.052;12.540;2023-04-24T04:49:31;14.10;98.10
40932;DHT22;36257;46.052;12.540;2023-04-24T04:51:57;14.10;97.70
40932;DHT22;36257;46.052;12.540;2023-04-24T04:54:22;14.20;97.60
40932;DHT22;36257;46.052;12.540;2023-04-24T04:56:50;14.20;97.60
40932;DHT22;36257;46.052;12.540;2023-04-24T04:59:16;14.20;97.80
40932;DHT22;36257;46.052;12.540;2023-04-24T05:01:41;14.30;97.90
40932;DHT22;36257;46.052;12.540;2023-04-24T05:04:07;14.20;97.60
40932;DHT22;36257;46.052;12.540;2023-04-24T05:06:32;14.30;97.60
40932;DHT22;36257;46.052;12.540;2023-04-24T05:08:58;14.30;97.80
40932;DHT22;36257;46.052;12.540;2023-04-24T05:11:24;14.30;97.30
40932;DHT22;36257;46.052;12.540;2023-04-24T05:13:49;14.30;97.50
40932;DHT22;36257;46.052;12.540;2023-04-24T05:16:15;14.30;97.50
40932;DHT22;36257;46.052;12.540;2023-04-24T05:18:41;14.40;97.70
40932;DHT22;36257;46.052;12.540;2023-04-24T05:21:06;14.40;98.20
40932;DHT22;36257;46.052;12.540;2023-04-24T05:23:32;14.30;98.50
40932;DHT22;36257;46.052;12.540;2023-04-24T05:25:58;14.30;99.10
40932;DHT22;36257;46.052;12.540;2023-04-24T05:28:23;14.30;99.60
40932;DHT22;36257;46.052;12.540;2023-04-24T05:30:54;14.20;99.40
40932;DHT22;36257;46.052;12.540;2023-04-24T05:33:20;14.20;99.90
40932;DHT22;36257;46.052;12.540;2023-04-24T05:35:46;14.10;99.90
40932;DHT22;36257;46.052;12.540;2023-04-24T05:38:12;14.10;99.90
40932;DHT22;36257;46.052;12.540;2023-04-24T05:40:38;14.10;99.90
40932;DHT22;36257;46.052;12.540;2023-04-24T05:43:04;14.00;99.90
40932;DHT22;36257;46.052;12.540;2023-04-24T05:45:30;13.90;99.90
40932;DHT22;36257;46.052;12.540;2023-04-24T05:47:56;13.90;99.90
40932;DHT22;36257;46.052;12.540;2023-04-24T05:50:21;13.90;99.90
40932;DHT22;36257;46.052;12.540;2023-04-24T05:52:47;13.80;99.90
40932;DHT22;36257;46.052;12.540;2023-04-24T05:55:13;13.80;99.90
40932;DHT22;36257;46.052;12.540;2023-04-24T05:57:40;13.90;99.90
40932;DHT22;36257;46.052;12.540;2023-04-24T06:00:06;13.70;99.90
40932;DHT22;36257;46.052;12.540;2023-04-24T06:02:33;13.70;99.90
40932;DHT22;36257;46.052;12.540;2023-04-24T06:04:59;13.70;99.90
40932;DHT22;36257;46.052;12.540;2023-04-24T06:07:25;13.70;99.90
40932;DHT22;36257;46.052;12.540;2023-04-24T06:09:54;13.70;99.90
40932;DHT22;36257;46.052;12.540;2023-04-24T06:12:19;13.60;99.90
40932;DHT22;36257;46.052;12.540;2023-04-24T06:14:45;13.60;99.90
40932;DHT22;36257;46.052;12.540;2023-04-24T06:17:11;13.60;99.90
40932;DHT22;36257;46.052;12.540;2023-04-24T06:19:36;13.60;99.90
40932;DHT22;36257;46.052;12.540;2023-04-24T06:22:02;13.60;99.90
40932;DHT22;36257;46.052;12.540;2023-04-24T06:24:28;13.60;99.90
40932;DHT22;36257;46.052;12.540;2023-04-24T06:26:54;13.40;99.90
40932;DHT22;36257;46.052;12.540;2023-04-24T06:29:19;13.40;99.90
40932;DHT22;36257;46.052;12.540;2023-04-24T06:31:45;13.40;99.90
40932;DHT22;36257;46.052;12.540;2023-04-24T06:34:10;13.40;99.90
40932;DHT22;36257;46.052;12.540;2023-04-24T06:36:36;13.40;99.90
40932;DHT22;36257;46.052;12.540;2023-04-24T06:39:02;13.40;99.90
40932;DHT22;36257;46.052;12.540;2023-04-24T06:41:28;13.40;99.90
40932;DHT22;36257;46.052;12.540;2023-04-24T06:43:54;13.40;99.90
40932;DHT22;36257;46.052;12.540;2023-04-24T06:46:20;13.30;99.90
40932;DHT22;36257;46.052;12.540;2023-04-24T06:48:49;13.20;99.90
40932;DHT22;36257;46.052;12.540;2023-04-24T06:51:14;13.10;99.90
40932;DHT22;36257;46.052;12.540;2023-04-24T06:53:40;13.10;99.90
40932;DHT22;36257;46.052;12.540;2023-04-24T06:56:06;13.10;99.90
40932;DHT22;36257;46.052;12.540;2023-04-24T06:58:32;13.10;99.90
40932;DHT22;36257;46.052;12.540;2023-04-24T07:00:57;13.00;99.90
40932;DHT22;36257;46.052;12.540;2023-04-24T07:03:23;13.10;99.90
40932;DHT22;36257;46.052;12.540;2023-04-24T07:05:48;13.10;99.90
40932;DHT22;36257;46.052;12.540;2023-04-24T07:08:14;13.10;99.90
40932;DHT22;36257;46.052;12.540;2023-04-24T07:10:43;13.10;99.90
40932;DHT22;36257;46.052;12.540;2023-04-24T07:13:09;13.20;99.90
40932;DHT22;36257;46.052;12.540;2023-04-24T07:15:35;13.30;99.90
40932;DHT22;36257;46.052;12.540;2023-04-24T07:18:01;13.30;99.90
40932;DHT22;36257;46.052;12.540;2023-04-24T07:20:26;13.30;99.90
40932;DHT22;36257;46.052;12.540;2023-04-24T07:22:52;13.40;99.90
40932;DHT22;36257;46.052;12.540;2023-04-24T07:25:19;13.30;99.90
40932;DHT22;36257;46.052;12.540;2023-04-24T07:27:45;13.30;99.90
40932;DHT22;36257;46.052;12.540;2023-04-24T07:30:11;13.30;99.90
40932;DHT22;36257;46.052;12.540;2023-04-24T07:32:37;13.30;99.90
40932;DHT22;36257;46.052;12.540;2023-04-24T07:35:02;13.40;99.90
40932;DHT22;36257;46.052;12.540;2023-04-24T07:37:28;13.40;99.90
40932;DHT22;36257;46.052;12.540;2023-04-24T07:39:54;13.50;99.90
40932;DHT22;36257;46.052;12.540;2023-04-24T07:42:20;13.50;99.90
40932;DHT22;36257;46.052;12.540;2023-04-24T07:44:46;13.60;99.90
40932;DHT22;36257;46.052;12.540;2023-04-24T07:47:13;13.60;99.90
40932;DHT22;36257;46.052;12.540;2023-04-24T07:49:41;13.60;99.90
40932;DHT22;36257;46.052;12.540;2023-04-24T07:52:07;13.60;99.90
40932;DHT22;36257;46.052;12.540;2023-04-24T07:54:33;13.70;99.90
40932;DHT22;36257;46.052;12.540;2023-04-24T07:56:59;13.70;99.90
40932;DHT22;36257;46.052;12.540;2023-04-24T07:59:25;13.70;99.90
40932;DHT22;36257;46.052;12.540;2023-04-24T08:01:51;13.70;99.90
40932;DHT22;36257;46.052;12.540;2023-04-24T08:04:16;13.70;99.90
40932;DHT22;36257;46.052;12.540;2023-04-24T08:06:43;13.80;99.90
40932;DHT22;36257;46.052;12.540;2023-04-24T08:09:09;13.80;99.90
40932;DHT22;36257;46.052;12.540;2023-04-24T08:11:35;13.80;99.90
40932;DHT22;36257;46.052;12.540;2023-04-24T08:14:00;13.80;99.90
40932;DHT22;36257;46.052;12.540;2023-04-24T08:16:27;13.80;99.90
40932;DHT22;36257;46.052;12.540;2023-04-24T08:18:53;13.80;99.90
40932;DHT22;36257;46.052;12.540;2023-04-24T08:21:19;13.80;99.90
40932;DHT22;36257;46.052;12.540;2023-04-24T08:23:46;13.80;99.90
40932;DHT22;36257;46.052;12.540;2023-04-24T08:26:12;13.80;99.90
40932;DHT22;36257;46.052;12.540;2023-04-24T08:28:38;14.00;99.90
40932;DHT22;36257;46.052;12.540;2023-04-24T08:31:03;13.90;99.90
40932;DHT22;36257;46.052;12.540;2023-04-24T08:33:29;13.90;99.90
40932;DHT22;36257;46.052;12.540;2023-04-24T08:36:04;13.90;99.90
40932;DHT22;36257;46.052;12.540;2023-04-24T08:38:30;13.80;99.90
40932;DHT22;36257;46.052;12.540;2023-04-24T08:40:58;13.80;99.90
40932;DHT22;36257;46.052;12.540;2023-04-24T08:43:25;13.70;99.90
40932;DHT22;36257;46.052;12.540;2023-04-24T08:45:52;13.60;99.90
40932;DHT22;36257;46.052;12.540;2023-04-24T08:48:18;13.50;99.90
40932;DHT22;36257;46.052;12.540;2023-04-24T08:50:44;13.50;99.90
40932;DHT22;36257;46.052;12.540;2023-04-24T08:53:10;13.60;99.90
40932;DHT22;36257;46.052;12.540;2023-04-24T08:55:37;13.60;99.90
40932;DHT22;36257;46.052;12.540;2023-04-24T08:58:04;13.50;99.90
40932;DHT22;36257;46.052;12.540;2023-04-24T09:00:29;13.40;99.90
40932;DHT22;36257;46.052;12.540;2023-04-24T09:02:56;13.40;97.50
40932;DHT22;36257;46.052;12.540;2023-04-24T09:05:23;13.40;99.90
40932;DHT22;36257;46.052;12.540;2023-04-24T09:07:54;13.30;99.90
40932;DHT22;36257;46.052;12.540;2023-04-24T09:10:21;13.20;99.90
40932;DHT22;36257;46.052;12.540;2023-04-24T09:12:47;13.20;99.90
40932;DHT22;36257;46.052;12.540;2023-04-24T09:15:15;13.10;99.90
40932;DHT22;36257;46.052;12.540;2023-04-24T09:17:41;13.10;99.90
40932;DHT22;36257;46.052;12.540;2023-04-24T09:20:08;13.00;99.90
40932;DHT22;36257;46.052;12.540;2023-04-24T09:22:34;12.90;99.90
40932;DHT22;36257;46.052;12.540;2023-04-24T09:25:03;12.90;99.90
40932;DHT22;36257;46.052;12.540;2023-04-24T09:27:31;12.80;99.90
40932;DHT22;36257;46.052;12.540;2023-04-24T09:29:57;12.70;99.90
40932;DHT22;36257;46.052;12.540;2023-04-24T09:32:24;12.70;99.90
40932;DHT22;36257;46.052;12.540;2023-04-24T09:37:37;12.70;99.90
40932;DHT22;36257;46.052;12.540;2023-04-24T09:40:18;12.70;99.90
40932;DHT22;36257;46.052;12.540;2023-04-24T09:42:55;12.70;99.90
40932;DHT22;36257;46.052;12.540;2023-04-24T09:45:22;12.80;99.90
40932;DHT22;36257;46.052;12.540;2023-04-24T09:47:52;12.80;99.90
40932;DHT22;36257;46.052;12.540;2023-04-24T09:50:21;12.90;99.90
40932;DHT22;36257;46.052;12.540;2023-04-24T09:52:59;12.80;99.90
40932;DHT22;36257;46.052;12.540;2023-04-24T09:55:26;12.70;99.90
40932;DHT22;36257;46.052;12.540;2023-04-24T09:57:54;12.80;99.90
40932;DHT22;36257;46.052;12.540;2023-04-24T10:00:28;12.80;99.90
40932;DHT22;36257;46.052;12.540;2023-04-24T10:03:02;12.80;99.90
40932;DHT22;36257;46.052;12.540;2023-04-24T10:05:29;12.80;99.90
40932;DHT22;36257;46.052;12.540;2023-04-24T10:08:05;12.80;99.90
40932;DHT22;36257;46.052;12.540;2023-04-24T10:10:33;12.90;99.90
40932;DHT22;36257;46.052;12.540;2023-04-24T10:13:00;13.00;99.90
40932;DHT22;36257;46.052;12.540;2023-04-24T10:15:26;13.00;99.90
40932;DHT22;36257;46.052;12.540;2023-04-24T10:17:52;13.10;99.90
40932;DHT22;36257;46.052;12.540;2023-04-24T10:20:20;13.10;99.90
40932;DHT22;36257;46.052;12.540;2023-04-24T10:22:49;13.00;99.90
40932;DHT22;36257;46.052;12.540;2023-04-24T10:25:18;13.00;99.90
40932;DHT22;36257;46.052;12.540;2023-04-24T10:27:45;13.10;99.90
40932;DHT22;36257;46.052;12.540;2023-04-24T10:30:12;13.00;99.90
40932;DHT22;36257;46.052;12.540;2023-04-24T10:32:39;12.90;99.90
40932;DHT22;36257;46.052;12.540;2023-04-24T10:35:06;12.80;99.90
40932;DHT22;36257;46.052;12.540;2023-04-24T10:37:51;12.80;99.90
40932;DHT22;36257;46.052;12.540;2023-04-24T10:40:19;12.70;99.90
40932;DHT22;36257;46.052;12.540;2023-04-24T10:42:52;12.70;99.90
40932;DHT22;36257;46.052;12.540;2023-04-24T10:45:21;12.80;99.90
40932;DHT22;36257;46.052;12.540;2023-04-24T10:47:52;12.70;99.90
40932;DHT22;36257;46.052;12.540;2023-04-24T10:50:18;12.80;99.90
40932;DHT22;36257;46.052;12.540;2023-04-24T10:52:48;12.90;99.90
40932;DHT22;36257;46.052;12.540;2023-04-24T10:55:16;12.90;99.90
40932;DHT22;36257;46.052;12.540;2023-04-24T10:58:03;13.00;99.90
40932;DHT22;36257;46.052;12.540;2023-04-24T11:00:29;13.00;99.90
40932;DHT22;36257;46.052;12.540;2023-04-24T11:02:55;13.10;99.90
40932;DHT22;36257;46.052;12.540;2023-04-24T11:05:24;13.10;99.90
40932;DHT22;36257;46.052;12.540;2023-04-24T11:08:16;13.30;99.90
40932;DHT22;36257;46.052;12.540;2023-04-24T11:10:54;13.40;99.90
40932;DHT22;36257;46.052;12.540;2023-04-24T11:13:24;13.30;99.90
40932;DHT22;36257;46.052;12.540;2023-04-24T11:18:39;13.50;99.90
40932;DHT22;36257;46.052;12.540;2023-04-24T11:21:15;13.50;99.90
40932;DHT22;36257;46.052;12.540;2023-04-24T11:23:41;13.60;99.90
40932;DHT22;36257;46.052;12.540;2023-04-24T11:26:26;13.70;99.90
40932;DHT22;36257;46.052;12.540;2023-04-24T11:29:06;13.80;99.90
40932;DHT22;36257;46.052;12.540;2023-04-24T11:31:39;13.70;99.90
40932;DHT22;36257;46.052;12.540;2023-04-24T11:34:11;13.60;99.90
40932;DHT22;36257;46.052;12.540;2023-04-24T11:36:37;13.50;99.90
40932;DHT22;36257;46.052;12.540;2023-04-24T11:39:03;13.40;99.90
40932;DHT22;36257;46.052;12.540;2023-04-24T11:41:29;13.40;99.90
40932;DHT22;36257;46.052;12.540;2023-04-24T11:43:56;13.40;99.90
40932;DHT22;36257;46.052;12.540;2023-04-24T11:46:22;13.50;99.90
40932;DHT22;36257;46.052;12.540;2023-04-24T11:48:48;13.50;99.90
40932;DHT22;36257;46.052;12.540;2023-04-24T11:51:14;13.50;99.90
40932;DHT22;36257;46.052;12.540;2023-04-24T11:53:40;13.50;99.90
40932;DHT22;36257;46.052;12.540;2023-04-24T11:56:06;13.60;99.90
40932;DHT22;36257;46.052;12.540;2023-04-24T11:58:35;13.70;99.90
40932;DHT22;36257;46.052;12.540;2023-04-24T12:01:02;13.70;99.90
40932;DHT22;36257;46.052;12.540;2023-04-24T12:03:28;13.70;99.90
40932;DHT22;36257;46.052;12.540;2023-04-24T12:06:05;13.80;99.90
40932;DHT22;36257;46.052;12.540;2023-04-24T12:08:31;13.80;99.90
40932;DHT22;36257;46.052;12.540;2023-04-24T12:10:57;13.80;99.90
40932;DHT22;36257;46.052;12.540;2023-04-24T12:13:25;13.80;99.90
40932;DHT22;36257;46.052;12.540;2023-04-24T12:15:51;13.80;99.90
40932;DHT22;36257;46.052;12.540;2023-04-24T12:18:16;13.90;99.90
40932;DHT22;36257;46.052;12.540;2023-04-24T12:20:42;14.00;99.90
40932;DHT22;36257;46.052;12.540;2023-04-24T12:23:08;14.00;99.90
40932;DHT22;36257;46.052;12.540;2023-04-24T12:25:34;14.00;99.90
40932;DHT22;36257;46.052;12.540;2023-04-24T12:30:30;14.10;99.90
40932;DHT22;36257;46.052;12.540;2023-04-24T12:32:59;14.30;99.90
40932;DHT22;36257;46.052;12.540;2023-04-24T12:35:28;14.30;99.90
40932;DHT22;36257;46.052;12.540;2023-04-24T12:37:55;14.40;97.00
40932;DHT22;36257;46.052;12.540;2023-04-24T12:40:25;14.50;97.30
40932;DHT22;36257;46.052;12.540;2023-04-24T12:42:51;14.50;98.30
40932;DHT22;36257;46.052;12.540;2023-04-24T12:45:18;14.70;98.50
40932;DHT22;36257;46.052;12.540;2023-04-24T12:47:45;14.70;95.70
40932;DHT22;36257;46.052;12.540;2023-04-24T12:50:18;14.80;94.10
40932;DHT22;36257;46.052;12.540;2023-04-24T12:52:44;14.80;96.40
40932;DHT22;36257;46.052;12.540;2023-04-24T12:55:10;14.90;97.20
40932;DHT22;36257;46.052;12.540;2023-04-24T12:57:39;15.00;97.80
40932;DHT22;36257;46.052;12.540;2023-04-24T13:00:26;15.00;97.70
40932;DHT22;36257;46.052;12.540;2023-04-24T13:02:51;15.10;94.90
40932;DHT22;36257;46.052;12.540;2023-04-24T13:05:17;15.20;93.80
40932;DHT22;36257;46.052;12.540;2023-04-24T13:07:44;15.20;93.80
40932;DHT22;36257;46.052;12.540;2023-04-24T13:10:10;15.10;96.70
40932;DHT22;36257;46.052;12.540;2023-04-24T13:12:35;15.10;97.60
40932;DHT22;36257;46.052;12.540;2023-04-24T13:15:01;15.00;98.50
40932;DHT22;36257;46.052;12.540;2023-04-24T13:17:27;15.00;98.60
40932;DHT22;36257;46.052;12.540;2023-04-24T13:19:54;15.10;98.80
40932;DHT22;36257;46.052;12.540;2023-04-24T13:22:20;15.00;99.90
40932;DHT22;36257;46.052;12.540;2023-04-24T13:24:46;14.90;99.90
40932;DHT22;36257;46.052;12.540;2023-04-24T13:27:14;14.90;99.90
40932;DHT22;36257;46.052;12.540;2023-04-24T13:29:40;15.00;99.90
40932;DHT22;36257;46.052;12.540;2023-04-24T13:32:08;14.90;99.90
40932;DHT22;36257;46.052;12.540;2023-04-24T13:34:34;15.00;99.90
40932;DHT22;36257;46.052;12.540;2023-04-24T13:37:00;15.00;99.90
40932;DHT22;36257;46.052;12.540;2023-04-24T13:39:27;15.00;99.90
40932;DHT22;36257;46.052;12.540;2023-04-24T13:41:53;15.10;99.90
40932;DHT22;36257;46.052;12.540;2023-04-24T13:44:20;15.20;99.90
40932;DHT22;36257;46.052;12.540;2023-04-24T13:46:47;15.20;98.00
40932;DHT22;36257;46.052;12.540;2023-04-24T13:49:13;15.20;95.00
40932;DHT22;36257;46.052;12.540;2023-04-24T13:51:40;15.40;94.70
40932;DHT22;36257;46.052;12.540;2023-04-24T13:54:06;15.40;94.90
40932;DHT22;36257;46.052;12.540;2023-04-24T13:56:32;15.50;95.90
40932;DHT22;36257;46.052;12.540;2023-04-24T13:58:58;15.40;95.50
40932;DHT22;36257;46.052;12.540;2023-04-24T14:01:24;15.40;97.00
40932;DHT22;36257;46.052;12.540;2023-04-24T14:03:54;15.50;93.10
40932;DHT22;36257;46.052;12.540;2023-04-24T14:06:21;15.50;93.40
40932;DHT22;36257;46.052;12.540;2023-04-24T14:08:48;15.50;95.30
40932;DHT22;36257;46.052;12.540;2023-04-24T14:11:14;15.60;95.80
40932;DHT22;36257;46.052;12.540;2023-04-24T14:13:41;15.60;94.40
40932;DHT22;36257;46.052;12.540;2023-04-24T14:16:07;15.60;94.00
40932;DHT22;36257;46.052;12.540;2023-04-24T14:18:33;15.80;95.30
40932;DHT22;36257;46.052;12.540;2023-04-24T14:20:59;15.70;93.20
40932;DHT22;36257;46.052;12.540;2023-04-24T14:23:26;15.80;94.20
40932;DHT22;36257;46.052;12.540;2023-04-24T14:25:52;15.80;92.50
40932;DHT22;36257;46.052;12.540;2023-04-24T14:28:19;15.70;90.40
40932;DHT22;36257;46.052;12.540;2023-04-24T14:30:46;15.80;91.30
40932;DHT22;36257;46.052;12.540;2023-04-24T14:33:12;15.90;91.10
40932;DHT22;36257;46.052;12.540;2023-04-24T14:35:38;16.00;93.40
40932;DHT22;36257;46.052;12.540;2023-04-24T14:38:04;16.10;92.60
40932;DHT22;36257;46.052;12.540;2023-04-24T14:40:30;16.20;90.60
40932;DHT22;36257;46.052;12.540;2023-04-24T14:42:56;16.40;92.70
40932;DHT22;36257;46.052;12.540;2023-04-24T14:45:23;16.40;93.30
40932;DHT22;36257;46.052;12.540;2023-04-24T14:47:49;16.50;91.80
40932;DHT22;36257;46.052;12.540;2023-04-24T14:50:15;16.50;89.80
40932;DHT22;36257;46.052;12.540;2023-04-24T14:52:40;16.50;91.20
40932;DHT22;36257;46.052;12.540;2023-04-24T14:55:06;16.60;89.80
40932;DHT22;36257;46.052;12.540;2023-04-24T14:57:33;16.60;88.90
40932;DHT22;36257;46.052;12.540;2023-04-24T14:59:59;16.70;91.80
40932;DHT22;36257;46.052;12.540;2023-04-24T15:02:24;16.70;90.90
40932;DHT22;36257;46.052;12.540;2023-04-24T15:04:50;16.60;88.50
40932;DHT22;36257;46.052;12.540;2023-04-24T15:07:16;16.60;88.40
40932;DHT22;36257;46.052;12.540;2023-04-24T15:09:41;16.50;90.90
40932;DHT22;36257;46.052;12.540;2023-04-24T15:12:08;16.50;90.40
40932;DHT22;36257;46.052;12.540;2023-04-24T15:14:34;16.60;90.10
40932;DHT22;36257;46.052;12.540;2023-04-24T15:16:59;16.60;92.20
40932;DHT22;36257;46.052;12.540;2023-04-24T15:19:25;16.50;90.30
40932;DHT22;36257;46.052;12.540;2023-04-24T15:21:50;16.50;89.60